createdAt,value
2022-09-25T00:00:30.402Z,71.79
2022-09-25T00:03:40.966Z,71.58
2022-09-25T00:06:49.540Z,71.41
2022-09-25T00:09:53.822Z,69.35
2022-09-25T00:13:28.267Z,70.00
2022-09-25T00:16:49.458Z,69.55
2022-09-25T00:20:16.113Z,68.47
2022-09-25T00:23:23.841Z,67.58
2022-09-25T00:26:30.339Z,66.32
2022-09-25T00:29:34.898Z,65.13
2022-09-25T00:32:50.778Z,64.13
2022-09-25T00:37:23.141Z,63.76
2022-09-25T00:40:22.454Z,61.20
2022-09-25T00:44:02.267Z,61.14
2022-09-25T00:47:07.188Z,57.94
2022-09-25T00:50:29.063Z,57.99
2022-09-25T00:54:20.762Z,57.42
2022-09-25T00:57:42.103Z,55.80
2022-09-25T01:01:10.199Z,56.23
2022-09-25T01:08:14.157Z,54.02
2022-09-25T01:15:44.819Z,52.58
2022-09-25T01:20:05.203Z,51.12
2022-09-25T01:23:24.277Z,51.37
2022-09-25T01:27:29.287Z,52.13
2022-09-25T01:30:47.004Z,50.63
2022-09-25T01:34:39.092Z,50.03
2022-09-25T01:43:00.655Z,50.19
2022-09-25T01:46:59.613Z,51.59
2022-09-25T01:55:31.333Z,51.83
2022-09-25T01:59:50.323Z,53.34
2022-09-25T02:03:00.558Z,54.76
2022-09-25T02:10:25.807Z,54.14
2022-09-25T02:13:45.487Z,55.59
2022-09-25T02:17:20.066Z,55.48
2022-09-25T02:24:17.560Z,55.34
2022-09-25T02:28:28.798Z,56.06
2022-09-25T02:32:10.577Z,55.73
2022-09-25T02:35:40.880Z,56.02
2022-09-25T02:39:17.132Z,56.23
2022-09-25T02:43:17.827Z,56.29
2022-09-25T02:47:06.379Z,56.91
2022-09-25T02:50:32.085Z,56.91
2022-09-25T02:53:43.879Z,57.74
2022-09-25T02:57:01.419Z,57.10
2022-09-25T03:00:23.751Z,57.28
2022-09-25T03:03:42.818Z,55.86
2022-09-25T03:06:52.441Z,57.10
2022-09-25T03:10:01.581Z,57.73
2022-09-25T03:13:42.132Z,56.13
2022-09-25T03:17:23.243Z,56.18
2022-09-25T03:21:00.741Z,53.97
2022-09-25T03:25:28.414Z,55.03
2022-09-25T03:28:38.961Z,53.99
2022-09-25T03:32:20.017Z,54.12
2022-09-25T03:35:28.631Z,55.13
2022-09-25T03:42:28.014Z,54.60
2022-09-25T03:46:39.238Z,52.35
2022-09-25T03:49:49.369Z,51.70
2022-09-25T03:53:29.407Z,53.29
2022-09-25T03:56:47.827Z,52.17
2022-09-25T04:00:02.107Z,52.61
2022-09-25T04:03:24.755Z,53.58
2022-09-25T04:08:50.779Z,52.24
2022-09-25T04:11:32.003Z,50.36
2022-09-25T04:14:43.050Z,49.73
2022-09-25T04:18:06.810Z,49.40
2022-09-25T04:21:15.865Z,49.62
2022-09-25T04:24:59.872Z,50.05
2022-09-25T04:28:28.304Z,50.44
2022-09-25T04:32:03.888Z,49.26
2022-09-25T04:35:36.926Z,48.14
2022-09-25T04:39:07.426Z,49.55
2022-09-25T04:47:27.981Z,49.56
2022-09-25T04:51:05.278Z,50.02
2022-09-25T04:55:16.983Z,50.16
2022-09-25T04:59:37.525Z,48.48
2022-09-25T05:07:30.921Z,47.50
2022-09-25T05:11:59.961Z,47.25
2022-09-25T05:15:16.117Z,47.97
2022-09-25T05:18:54.675Z,47.14
2022-09-25T05:22:05.746Z,47.76
2022-09-25T05:25:19.686Z,47.55
2022-09-25T05:28:27.876Z,47.48
2022-09-25T05:31:33.506Z,47.71
2022-09-25T05:35:53.817Z,47.65
2022-09-25T05:38:27.684Z,48.34
2022-09-25T05:41:46.763Z,47.74
2022-09-25T05:45:21.974Z,47.75
2022-09-25T05:48:32.170Z,47.38
2022-09-25T05:51:36.749Z,47.65
2022-09-25T05:54:41.933Z,47.75
2022-09-25T05:57:48.796Z,47.92
2022-09-25T06:01:22.499Z,48.45
2022-09-25T06:05:01.213Z,48.73
2022-09-25T06:08:28.042Z,47.79
2022-09-25T06:11:40.151Z,46.79
2022-09-25T06:14:50.554Z,47.02
2022-09-25T06:17:58.087Z,47.36
2022-09-25T06:21:06.171Z,46.11
2022-09-25T06:24:14.227Z,46.68
2022-09-25T06:27:21.184Z,46.21
2022-09-25T06:30:40.726Z,46.53
2022-09-25T06:33:47.067Z,46.07
2022-09-25T06:36:52.251Z,45.79
2022-09-25T06:39:58.063Z,45.62
2022-09-25T06:43:34.476Z,45.80
2022-09-25T06:47:26.875Z,46.07
2022-09-25T06:50:58.270Z,47.62
2022-09-25T06:54:31.755Z,47.26
2022-09-25T06:58:05.511Z,47.14
2022-09-25T07:01:29.361Z,47.63
2022-09-25T07:04:41.584Z,48.25
2022-09-25T07:07:55.717Z,48.23
2022-09-25T07:11:15.078Z,48.71
2022-09-25T07:18:13.400Z,48.06
2022-09-25T07:21:33.071Z,49.02
2022-09-25T07:24:43.371Z,49.38
2022-09-25T07:27:51.003Z,50.15
2022-09-25T07:31:23.358Z,50.58
2022-09-25T07:34:53.141Z,50.99
2022-09-25T07:38:40.310Z,50.44
2022-09-25T07:41:28.607Z,50.36
2022-09-25T07:44:56.131Z,50.73
2022-09-25T07:48:08.151Z,51.23
2022-09-25T07:51:17.358Z,50.98
2022-09-25T07:54:22.304Z,51.21
2022-09-25T07:57:28.378Z,51.25
2022-09-25T08:00:40.395Z,51.27
2022-09-25T08:03:52.392Z,50.76
2022-09-25T08:07:04.222Z,51.18
2022-09-25T08:10:09.918Z,50.99
2022-09-25T08:13:23.677Z,51.07
2022-09-25T08:16:37.712Z,51.17
2022-09-25T08:19:45.292Z,51.02
2022-09-25T08:23:35.907Z,50.15
2022-09-25T08:27:05.313Z,50.71
2022-09-25T08:34:42.294Z,50.78
2022-09-25T08:38:15.372Z,51.51
2022-09-25T08:41:53.248Z,51.35
2022-09-25T08:45:35.451Z,51.46
2022-09-25T08:49:06.938Z,52.20
2022-09-25T08:52:19.514Z,52.59
2022-09-25T08:56:09.795Z,52.59
2022-09-25T08:59:44.801Z,53.18
2022-09-25T09:02:58.493Z,55.87
2022-09-25T09:06:07.282Z,57.48
2022-09-25T09:09:25.392Z,59.41
2022-09-25T09:12:34.730Z,60.33
2022-09-25T09:15:45.674Z,61.15
2022-09-25T09:18:58.921Z,61.24
2022-09-25T09:22:15.515Z,62.59
2022-09-25T09:25:29.959Z,63.14
2022-09-25T09:29:12.189Z,64.53
2022-09-25T09:32:37.829Z,63.48
2022-09-25T09:36:13.499Z,65.36
2022-09-25T09:39:25.010Z,64.49
2022-09-25T09:42:38.904Z,66.31
2022-09-25T09:46:00.463Z,67.15
2022-09-25T09:49:27.097Z,67.49
2022-09-25T09:52:44.886Z,64.49
2022-09-25T09:55:54.581Z,65.79
2022-09-25T09:59:08.929Z,66.14
2022-09-25T10:02:35.011Z,65.84
2022-09-25T10:05:51.515Z,64.11
2022-09-25T10:08:56.345Z,62.69
2022-09-25T10:12:13.562Z,62.53
2022-09-25T10:15:34.136Z,62.49
2022-09-25T10:18:53.333Z,62.28
2022-09-25T10:22:13.564Z,63.96
2022-09-25T10:25:59.574Z,67.69
2022-09-25T10:29:24.741Z,68.86
2022-09-25T10:32:37.008Z,67.45
2022-09-25T10:35:57.583Z,68.21
2022-09-25T10:39:39.106Z,68.70
2022-09-25T10:42:48.368Z,69.32
2022-09-25T10:46:49.734Z,70.64
2022-09-25T10:50:17.906Z,69.00
2022-09-25T10:53:31.114Z,71.15
2022-09-25T10:56:39.095Z,71.85
2022-09-25T10:59:54.265Z,72.00
2022-09-25T11:03:05.052Z,71.95
2022-09-25T11:06:36.470Z,71.88
2022-09-25T11:10:00.228Z,73.00
2022-09-25T11:13:11.028Z,74.58
2022-09-25T11:16:29.900Z,74.58
2022-09-25T11:19:52.242Z,74.12
2022-09-25T11:23:13.585Z,74.57
2022-09-25T11:26:32.431Z,73.24
2022-09-25T11:29:48.604Z,74.00
2022-09-25T11:33:30.929Z,73.33
2022-09-25T11:36:47.635Z,71.79
2022-09-25T11:40:49.815Z,70.78
2022-09-25T11:44:10.872Z,69.62
2022-09-25T11:47:43.532Z,68.48
2022-09-25T11:51:00.426Z,67.61
2022-09-25T11:54:57.022Z,67.15
2022-09-25T11:58:05.597Z,67.57
2022-09-25T12:01:35.620Z,67.17
2022-09-25T12:05:14.228Z,66.70
2022-09-25T12:08:54.312Z,66.40
2022-09-25T12:12:25.821Z,66.74
2022-09-25T12:15:52.546Z,66.75
2022-09-25T12:19:29.644Z,66.67
2022-09-25T12:26:19.257Z,66.62
2022-09-25T12:29:56.364Z,66.96
2022-09-25T12:51:52.183Z,73.21
2022-09-25T12:55:22.172Z,73.44
2022-09-25T12:58:58.333Z,72.34
2022-09-25T13:02:12.970Z,69.84
2022-09-25T13:05:22.293Z,68.53
2022-09-25T13:08:35.750Z,68.97
2022-09-25T13:11:51.261Z,68.26
2022-09-25T13:15:18.538Z,70.13
2022-09-25T13:18:26.306Z,70.52
2022-09-25T13:21:38.018Z,71.31
2022-09-25T13:25:16.507Z,72.26
2022-09-25T13:28:27.489Z,70.50
2022-09-25T13:31:37.954Z,70.24
2022-09-25T13:34:43.604Z,68.92
2022-09-25T13:37:50.272Z,68.88
2022-09-25T13:40:54.790Z,67.88
2022-09-25T13:44:38.694Z,68.04
2022-09-25T13:47:55.787Z,67.96
2022-09-25T13:51:24.505Z,68.55
2022-09-25T13:54:29.516Z,68.81
2022-09-25T13:57:59.305Z,69.35
2022-09-25T14:01:04.174Z,69.09
2022-09-25T14:04:28.043Z,69.32
2022-09-25T14:07:32.746Z,69.07
2022-09-25T14:10:37.133Z,69.39
2022-09-25T14:13:46.572Z,69.73
2022-09-25T14:16:54.122Z,69.71
2022-09-25T14:20:00.618Z,69.69
2022-09-25T14:23:24.892Z,70.72
2022-09-25T14:26:30.332Z,70.96
2022-09-25T14:29:41.465Z,70.97
2022-09-25T14:33:07.531Z,71.98
2022-09-25T14:36:52.744Z,70.75
2022-09-25T14:40:19.739Z,71.73
2022-09-25T14:46:44.016Z,72.24
2022-09-25T14:49:52.636Z,71.83
2022-09-25T14:53:01.542Z,73.32
2022-09-25T14:56:12.875Z,73.57
2022-09-25T14:59:35.073Z,71.89
2022-09-25T15:02:42.987Z,70.82
2022-09-25T15:05:51.437Z,70.36
2022-09-25T15:08:56.777Z,69.87
2022-09-25T15:12:01.420Z,69.00
2022-09-25T15:15:09.788Z,68.58
2022-09-25T15:18:16.606Z,68.47
2022-09-25T15:21:31.777Z,68.35
2022-09-25T15:24:37.130Z,68.89
2022-09-25T15:27:43.592Z,69.21
2022-09-25T15:30:59.752Z,69.25
2022-09-25T15:34:17.179Z,69.11
2022-09-25T15:37:30.006Z,69.65
2022-09-25T15:40:35.576Z,70.07
2022-09-25T15:43:40.191Z,70.98
2022-09-25T15:46:48.230Z,70.78
2022-09-25T15:49:53.070Z,70.90
2022-09-25T15:53:01.089Z,70.85
2022-09-25T15:56:26.187Z,70.93
2022-09-25T16:00:08.557Z,70.99
2022-09-25T16:03:37.062Z,70.52
2022-09-25T16:06:46.684Z,70.63
2022-09-25T16:09:56.838Z,70.95
2022-09-25T16:13:02.425Z,73.26
2022-09-25T16:16:17.615Z,72.83
2022-09-25T16:19:28.637Z,71.65
2022-09-25T16:22:40.716Z,71.02
2022-09-25T16:25:48.956Z,71.20
2022-09-25T16:29:05.870Z,71.13
2022-09-25T16:32:20.678Z,71.27
2022-09-25T16:36:05.227Z,71.64
2022-09-25T16:39:08.938Z,72.07
2022-09-25T16:42:43.151Z,72.14
2022-09-25T16:46:21.864Z,71.52
2022-09-25T16:49:29.360Z,71.63
2022-09-25T16:52:35.883Z,71.45
2022-09-25T16:55:54.049Z,71.85
2022-09-25T16:59:02.142Z,71.63
2022-09-25T17:02:23.898Z,71.98
2022-09-25T17:05:32.015Z,71.74
2022-09-25T17:08:36.631Z,72.25
2022-09-25T17:11:45.913Z,72.68
2022-09-25T17:14:51.822Z,71.96
2022-09-25T17:17:56.783Z,72.50
2022-09-25T17:21:11.240Z,72.89
2022-09-25T17:24:17.041Z,73.00
2022-09-25T17:27:21.597Z,73.03
2022-09-25T17:30:28.273Z,72.58
2022-09-25T17:33:33.209Z,72.29
2022-09-25T17:36:40.172Z,72.12
2022-09-25T17:39:44.616Z,72.43
2022-09-25T17:42:49.968Z,73.03
2022-09-25T17:45:57.909Z,72.77
2022-09-25T17:49:04.339Z,72.40
2022-09-25T17:52:12.344Z,73.39
2022-09-25T17:55:28.271Z,73.31
2022-09-25T17:58:35.216Z,73.46
2022-09-25T18:01:40.291Z,73.31
2022-09-25T18:04:47.504Z,73.94
2022-09-25T18:07:52.381Z,74.13
2022-09-25T18:10:59.605Z,74.34
2022-09-25T18:14:04.271Z,74.56
2022-09-25T18:17:08.742Z,74.86
2022-09-25T18:20:33.195Z,75.34
2022-09-25T18:23:39.255Z,75.67
2022-09-25T18:26:46.144Z,75.06
2022-09-25T18:29:50.746Z,75.34
2022-09-25T18:32:55.364Z,75.57
2022-09-25T18:36:00.919Z,76.25
2022-09-25T18:39:06.025Z,76.28
2022-09-25T18:42:10.369Z,77.10
2022-09-25T18:45:15.714Z,77.01
2022-09-25T18:48:20.229Z,77.32
2022-09-25T18:51:25.247Z,77.27
2022-09-25T18:54:32.063Z,77.28
2022-09-25T18:57:40.738Z,77.47
2022-09-25T19:00:45.304Z,78.26
2022-09-25T19:03:55.479Z,77.25
2022-09-25T19:07:00.352Z,77.68
2022-09-25T19:10:10.035Z,77.60
2022-09-25T19:13:19.267Z,77.71
2022-09-25T19:16:24.526Z,78.05
2022-09-25T19:19:31.074Z,78.31
2022-09-25T19:22:36.705Z,78.39
2022-09-25T19:25:41.224Z,79.16
2022-09-25T19:28:45.566Z,78.23
2022-09-25T19:31:49.964Z,78.04
2022-09-25T19:34:55.166Z,78.16
2022-09-25T19:38:00.272Z,78.81
2022-09-25T19:41:12.127Z,78.92
2022-09-25T19:44:16.622Z,79.10
2022-09-25T19:47:21.117Z,78.95
2022-09-25T19:50:25.384Z,79.20
2022-09-25T19:53:29.792Z,79.78
2022-09-25T19:56:35.028Z,79.53
2022-09-25T19:59:39.547Z,79.76
2022-09-25T20:02:48.469Z,80.10
2022-09-25T20:05:53.027Z,80.38
2022-09-25T20:09:01.945Z,80.36
2022-09-25T20:12:06.708Z,80.69
2022-09-25T20:15:14.464Z,80.84
2022-09-25T20:18:19.726Z,81.06
2022-09-25T20:21:28.422Z,81.48
2022-09-25T20:24:35.004Z,81.08
2022-09-25T20:27:42.514Z,81.57
2022-09-25T20:30:46.914Z,81.78
2022-09-25T20:33:51.377Z,81.90
2022-09-25T20:36:59.156Z,82.43
2022-09-25T20:40:05.646Z,83.28
2022-09-25T20:43:10.418Z,83.44
2022-09-25T20:46:15.672Z,83.48
2022-09-25T20:49:22.339Z,83.99
2022-09-25T20:52:34.452Z,85.25
2022-09-25T20:55:39.520Z,84.56
2022-09-25T20:58:50.806Z,84.55
2022-09-25T21:02:00.905Z,84.74
2022-09-25T21:05:08.928Z,85.55
2022-09-25T21:08:14.294Z,85.14
2022-09-25T21:11:18.931Z,85.21
2022-09-25T21:14:28.145Z,85.50
2022-09-25T21:17:33.461Z,85.46
